Time;durP1;ratioP1;P1;durP2;ratioP2;P2;SDS_P1;SDS_P2;PMS_P1;PMS_P2;Temp;Humidity;BMP_temperature;BMP_pressure;BME280_temperature;BME280_humidity;BME280_pressure;Samples;Min_cycle;Max_cycle;Signal;HPM_P1;HPM_P2
2022/01/18 00:00:30;;;;;;;0.20;0.20;;;;;;;2.44;100.00;102659.75;5032126;28;20041;-82
2022/01/18 00:03:04;;;;;;;0.10;0.10;;;;;;;2.32;100.00;102656.63;5025392;28;20042;-81
2022/01/18 00:05:38;;;;;;;0.10;0.10;;;;;;;2.37;100.00;102659.59;5021132;28;20049;-81
2022/01/18 00:08:11;;;;;;;0.10;0.10;;;;;;;2.40;100.00;102669.16;5024187;28;20053;-81
2022/01/18 00:10:47;;;;;;;0.20;0.20;;;;;;;2.38;100.00;102666.66;5028004;28;20041;-81
2022/01/18 00:13:37;;;;;;;0.20;0.20;;;;;;;2.45;100.00;102676.72;5024406;28;20045;-80
2022/01/18 00:16:26;;;;;;;0.20;0.20;;;;;;;2.51;100.00;102678.69;5025289;28;20544;-80
2022/01/18 00:18:58;;;;;;;0.10;0.10;;;;;;;2.53;100.00;102690.13;5019113;28;20386;-81
2022/01/18 00:21:38;;;;;;;0.27;0.27;;;;;;;2.48;100.00;102681.72;5028462;28;20049;-80
2022/01/18 00:24:11;;;;;;;0.17;0.17;;;;;;;2.30;100.00;102664.00;5023200;28;20058;-81
2022/01/18 00:26:44;;;;;;;0.10;0.10;;;;;;;2.46;100.00;102692.66;5035552;28;20064;-81
2022/01/18 00:29:17;;;;;;;0.20;0.20;;;;;;;2.48;100.00;102684.44;5028504;28;20359;-80
2022/01/18 00:32:02;;;;;;;0.20;0.20;;;;;;;2.48;100.00;102682.56;5025525;28;20386;-81
2022/01/18 00:34:38;;;;;;;0.20;0.20;;;;;;;2.53;100.00;102688.25;5026396;28;20062;-80
2022/01/18 00:37:27;;;;;;;0.10;0.10;;;;;;;2.51;100.00;102686.75;5023100;28;20049;-81
2022/01/18 00:39:56;;;;;;;0.20;0.20;;;;;;;2.48;100.00;102692.50;5024473;28;20053;-81
2022/01/18 00:42:29;;;;;;;0.10;0.10;;;;;;;2.46;100.00;102700.72;5023875;28;20049;-81
2022/01/18 00:44:58;;;;;;;0.10;0.10;;;;;;;2.46;100.00;102694.50;5025089;28;20046;-80
2022/01/18 00:47:27;;;;;;;0.10;0.10;;;;;;;2.47;100.00;102694.34;5026374;28;20394;-80
2022/01/18 00:50:01;;;;;;;0.20;0.20;;;;;;;2.45;100.00;102699.03;5018867;28;20046;-80
2022/01/18 00:52:33;;;;;;;0.10;0.10;;;;;;;2.50;100.00;102706.56;5021814;28;20041;-79
2022/01/18 00:55:07;;;;;;;0.22;0.22;;;;;;;2.58;100.00;102693.09;5031029;28;20052;-80
2022/01/18 00:57:40;;;;;;;0.20;0.20;;;;;;;2.65;100.00;102709.34;5028638;28;20406;-79
2022/01/18 01:00:16;;;;;;;0.10;0.10;;;;;;;2.76;100.00;102713.50;5030008;28;20050;-80
2022/01/18 01:02:49;;;;;;;0.20;0.20;;;;;;;2.75;100.00;102714.50;5042858;28;20053;-80
2022/01/18 01:05:22;;;;;;;0.20;0.20;;;;;;;2.81;100.00;102713.81;5032518;28;20502;-79
2022/01/18 01:07:55;;;;;;;0.20;0.20;;;;;;;2.75;100.00;102696.53;5025205;28;20045;-80
2022/01/18 01:10:23;;;;;;;0.20;0.20;;;;;;;2.84;100.00;102694.63;5030344;28;20064;-79
2022/01/18 01:12:57;;;;;;;0.10;0.10;;;;;;;2.78;100.00;102692.66;5026493;28;20052;-80
2022/01/18 01:15:37;;;;;;;0.20;0.20;;;;;;;2.73;100.00;102690.47;5026405;28;20060;-80
2022/01/18 01:18:20;;;;;;;0.20;0.20;;;;;;;2.83;100.00;102696.50;5026285;28;20037;-80
2022/01/18 01:33:04;;;;;;;0.10;0.10;;;;;;;2.63;100.00;102703.34;5024205;28;20053;-80
2022/01/18 01:35:46;;;;;;;0.20;0.20;;;;;;;2.80;100.00;102726.41;5028641;28;20052;-80
2022/01/18 01:44:07;;;;;;;0.10;0.10;;;;;;;2.80;100.00;102706.75;5025026;28;20045;-79
2022/01/18 01:46:41;;;;;;;0.20;0.20;;;;;;;2.81;100.00;102709.25;5025149;28;20046;-80
2022/01/18 01:49:14;;;;;;;0.10;0.10;;;;;;;2.84;100.00;102713.44;5027111;28;20034;-80
2022/01/18 01:51:44;;;;;;;0.13;0.13;;;;;;;2.83;100.00;102725.22;5026791;28;20057;-80
2022/01/18 01:54:17;;;;;;;0.20;0.20;;;;;;;2.85;100.00;102715.13;5020330;28;20038;-79
2022/01/18 01:56:51;;;;;;;0.20;0.20;;;;;;;2.86;100.00;102723.00;5043805;28;20046;-79
2022/01/18 01:59:19;;;;;;;0.10;0.10;;;;;;;2.86;100.00;102727.56;5026628;28;20056;-80
2022/01/18 02:02:02;;;;;;;0.15;0.15;;;;;;;2.79;100.00;102730.13;5026519;28;20474;-80
2022/01/18 02:04:36;;;;;;;0.20;0.20;;;;;;;2.82;100.00;102737.81;5020165;28;20504;-80
2022/01/18 02:07:10;;;;;;;0.20;0.20;;;;;;;2.81;100.00;102741.53;5025925;28;20474;-80
2022/01/18 02:09:43;;;;;;;0.15;0.15;;;;;;;2.80;100.00;102742.53;5026176;28;20306;-80
2022/01/18 02:12:12;;;;;;;0.10;0.10;;;;;;;2.80;100.00;102742.53;5027701;28;20064;-80
2022/01/18 02:14:45;;;;;;;0.20;0.20;;;;;;;2.91;100.00;102754.75;5031502;28;20057;-79
2022/01/18 02:22:58;;;;;;;0.10;0.10;;;;;;;2.97;100.00;102737.06;5025914;28;20042;-80
2022/01/18 02:25:31;;;;;;;0.20;0.20;;;;;;;3.06;100.00;102739.50;5025242;28;20584;-79
2022/01/18 02:28:04;;;;;;;0.20;0.20;;;;;;;3.14;100.00;102730.56;5024038;28;20046;-79
2022/01/18 02:30:38;;;;;;;0.10;0.10;;;;;;;3.12;100.00;102723.69;5021290;28;20676;-79
2022/01/18 02:33:11;;;;;;;0.15;0.15;;;;;;;3.17;100.00;102734.75;5025699;28;20046;-79
2022/01/18 02:35:46;;;;;;;0.15;0.15;;;;;;;3.26;100.00;102747.13;5022960;28;20430;-80
2022/01/18 02:38:20;;;;;;;0.10;0.10;;;;;;;3.24;100.00;102746.47;5024040;28;20487;-79
2022/01/18 02:40:53;;;;;;;0.10;0.10;;;;;;;3.23;100.00;102736.69;5024618;28;20045;-80
2022/01/18 02:46:12;;;;;;;0.10;0.10;;;;;;;3.20;100.00;102737.94;5019952;28;20069;-80
2022/01/18 02:48:46;;;;;;;0.20;0.20;;;;;;;3.23;100.00;102758.22;5024281;28;20057;-79
2022/01/18 02:51:20;;;;;;;0.20;0.20;;;;;;;3.20;100.00;102745.13;5024872;28;20064;-80
2022/01/18 02:54:00;;;;;;;0.10;0.10;;;;;;;3.17;100.00;102743.66;5013341;28;20659;-80
2022/01/18 02:56:36;;;;;;;0.20;0.20;;;;;;;3.12;100.00;102743.38;5025584;28;20046;-80
2022/01/18 02:59:17;;;;;;;0.13;0.13;;;;;;;3.14;100.00;102760.16;5024530;28;20056;-80
2022/01/18 03:04:43;;;;;;;0.20;0.20;;;;;;;3.14;100.00;102741.31;5020864;28;20033;-80
2022/01/18 03:07:18;;;;;;;0.10;0.10;;;;;;;3.09;100.00;102738.31;5025900;28;20402;-79
2022/01/18 03:09:51;;;;;;;0.10;0.10;;;;;;;3.15;100.00;102745.69;5029046;28;20414;-80
2022/01/18 03:12:19;;;;;;;0.10;0.10;;;;;;;3.13;100.00;102745.00;5029088;28;20045;-80
2022/01/18 03:14:52;;;;;;;0.10;0.10;;;;;;;3.13;100.00;102738.81;5026002;28;20056;-80
2022/01/18 03:17:21;;;;;;;0.20;0.20;;;;;;;3.07;100.00;102732.28;5027617;28;20045;-80
2022/01/18 03:19:54;;;;;;;0.10;0.10;;;;;;;3.12;100.00;102731.75;5028939;28;20041;-79
2022/01/18 03:22:24;;;;;;;0.10;0.10;;;;;;;3.18;100.00;102741.81;5028283;28;20489;-80
2022/01/18 03:25:01;;;;;;;0.10;0.10;;;;;;;3.24;100.00;102746.47;5026815;28;20048;-79
2022/01/18 03:30:39;;;;;;;0.10;0.10;;;;;;;3.18;100.00;102747.19;4972531;28;20054;-80
2022/01/18 03:33:15;;;;;;;0.15;0.15;;;;;;;3.11;100.00;102738.13;5019024;28;20073;-80
2022/01/18 03:35:50;;;;;;;0.10;0.10;;;;;;;3.16;100.00;102746.50;5031453;28;20072;-80
2022/01/18 03:38:21;;;;;;;0.10;0.10;;;;;;;3.21;100.00;102750.34;5030587;28;20057;-79
2022/01/18 03:40:49;;;;;;;0.10;0.10;;;;;;;3.23;100.00;102745.63;5031035;28;20053;-81
2022/01/18 03:43:18;;;;;;;0.15;0.15;;;;;;;3.28;100.00;102755.84;5027571;28;20053;-80
2022/01/18 03:45:54;;;;;;;0.20;0.20;;;;;;;3.26;100.00;102751.66;5022532;28;20054;-80
2022/01/18 03:48:31;;;;;;;0.10;0.10;;;;;;;3.23;100.00;102750.16;5028771;28;20045;-80
2022/01/18 03:51:00;;;;;;;0.13;0.10;;;;;;;3.29;100.00;102757.53;5022591;28;20049;-80
2022/01/18 03:53:29;;;;;;;0.10;0.10;;;;;;;3.44;100.00;102764.81;5020447;28;20065;-80
2022/01/18 03:56:03;;;;;;;0.10;0.10;;;;;;;3.38;100.00;102769.06;5030952;28;20474;-80
2022/01/18 03:58:37;;;;;;;0.10;0.10;;;;;;;3.31;100.00;102768.09;5031890;28;20050;-80
2022/01/18 04:01:10;;;;;;;0.10;0.10;;;;;;;3.38;100.00;102764.53;5019081;28;20505;-80
2022/01/18 04:03:43;;;;;;;0.10;0.10;;;;;;;3.32;100.00;102762.53;5027721;28;20045;-80
2022/01/18 04:06:16;;;;;;;0.10;0.10;;;;;;;3.32;100.00;102759.03;5028057;28;20410;-80
2022/01/18 04:08:51;;;;;;;0.10;0.10;;;;;;;3.48;100.00;102763.44;5030933;28;20060;-80
2022/01/18 04:11:24;;;;;;;0.10;0.10;;;;;;;3.49;100.00;102770.50;5031457;28;20490;-80
2022/01/18 04:13:57;;;;;;;0.10;0.10;;;;;;;3.48;100.00;102761.59;5038403;28;20478;-80
2022/01/18 04:16:40;;;;;;;0.20;0.20;;;;;;;3.54;100.00;102763.53;5033406;28;20056;-80
2022/01/18 04:25:46;;;;;;;0.10;0.10;;;;;;;3.57;100.00;102765.03;5028593;28;20561;-79
2022/01/18 04:28:02;;;;;;;0.10;0.10;;;;;;;3.42;100.00;102778.44;5025767;28;20568;-80
2022/01/18 04:30:35;;;;;;;0.10;0.10;;;;;;;3.35;100.00;102770.25;5034523;28;20045;-80
2022/01/18 04:33:09;;;;;;;0.10;0.10;;;;;;;3.44;100.00;102768.34;5029136;28;20577;-80
2022/01/18 04:35:42;;;;;;;0.10;0.10;;;;;;;3.53;100.00;102769.94;5029424;28;20465;-79
2022/01/18 04:38:15;;;;;;;0.20;0.20;;;;;;;3.58;100.00;102767.53;5028353;28;20049;-80
2022/01/18 04:40:50;;;;;;;0.10;0.10;;;;;;;3.64;100.00;102786.69;5029931;28;20041;-80
2022/01/18 04:43:37;;;;;;;0.10;0.10;;;;;;;3.65;100.00;102786.50;5032585;28;20041;-79
2022/01/18 04:49:05;;;;;;;0.10;0.10;;;;;;;3.50;100.00;102778.38;5008877;28;20064;-80
2022/01/18 04:51:40;;;;;;;0.10;0.10;;;;;;;3.48;100.00;102790.34;5031939;28;20053;-80
2022/01/18 04:54:15;;;;;;;0.20;0.20;;;;;;;3.48;100.00;102791.19;5026989;28;20052;-80
2022/01/18 04:59:40;;;;;;;0.10;0.10;;;;;;;3.39;100.00;102793.09;5029560;28;20057;-79
2022/01/18 05:02:13;;;;;;;0.10;0.10;;;;;;;3.47;100.00;102800.28;5028361;28;20060;-80
2022/01/18 05:04:47;;;;;;;0.13;0.13;;;;;;;3.48;100.00;102795.72;5046744;28;20048;-79
2022/01/18 05:07:20;;;;;;;0.20;0.20;;;;;;;3.49;100.00;102798.25;5027033;28;20493;-79
2022/01/18 05:09:54;;;;;;;0.20;0.20;;;;;;;3.50;100.00;102794.53;5029572;28;20037;-80
2022/01/18 05:12:40;;;;;;;0.10;0.10;;;;;;;3.55;100.00;102805.59;5030752;28;20049;-80
2022/01/18 05:15:35;;;;;;;0.10;0.10;;;;;;;3.63;100.00;102795.78;5030386;28;20049;-80
2022/01/18 05:21:19;;;;;;;0.10;0.10;;;;;;;3.59;100.00;102814.16;5031714;28;20056;-80
2022/01/18 05:23:47;;;;;;;0.20;0.20;;;;;;;3.66;100.00;102809.72;5028589;28;20390;-80
2022/01/18 05:26:20;;;;;;;0.10;0.10;;;;;;;3.75;100.00;102827.47;5027307;28;20058;-79
2022/01/18 05:28:57;;;;;;;0.10;0.10;;;;;;;3.81;100.00;102827.78;5028676;28;20045;-79
2022/01/18 05:31:30;;;;;;;0.10;0.10;;;;;;;3.95;100.00;102837.78;5031474;28;20064;-79
2022/01/18 05:34:03;;;;;;;0.10;0.10;;;;;;;4.08;100.00;102832.56;5031442;28;20394;-79
2022/01/18 05:36:31;;;;;;;0.10;0.10;;;;;;;4.09;100.00;102836.94;5029712;28;20063;-80
2022/01/18 05:39:05;;;;;;;0.10;0.10;;;;;;;4.12;100.00;102834.94;5031514;28;20041;-80
2022/01/18 05:41:33;;;;;;;0.10;0.10;;;;;;;4.08;100.00;102829.06;5030377;28;20049;-80
2022/01/18 05:44:08;;;;;;;0.20;0.20;;;;;;;4.05;100.00;102842.91;5031012;28;20049;-79
2022/01/18 05:46:42;;;;;;;0.10;0.10;;;;;;;4.13;100.00;102847.34;5030831;28;20647;-80
2022/01/18 05:49:10;;;;;;;0.17;0.17;;;;;;;4.05;100.00;102851.81;5030940;28;20061;-79
2022/01/18 05:51:40;;;;;;;0.13;0.13;;;;;;;4.00;100.00;102848.00;5035653;28;20048;-79
2022/01/18 05:54:13;;;;;;;0.10;0.10;;;;;;;4.01;100.00;102838.91;5034297;28;20040;-80
2022/01/18 05:56:46;;;;;;;0.10;0.10;;;;;;;4.05;100.00;102829.44;5020895;28;20044;-80
2022/01/18 05:59:24;;;;;;;0.10;0.10;;;;;;;4.05;100.00;102840.19;5030697;28;20045;-79
2022/01/18 06:02:02;;;;;;;0.17;0.17;;;;;;;3.98;100.00;102850.00;5030407;28;20052;-79
2022/01/18 06:07:17;;;;;;;0.10;0.10;;;;;;;3.89;100.00;102854.66;4997842;28;20054;-79
2022/01/18 06:09:50;;;;;;;0.10;0.10;;;;;;;3.89;100.00;102849.25;5028869;28;20053;-79
2022/01/18 06:12:25;;;;;;;0.10;0.10;;;;;;;3.83;100.00;102853.50;5029432;28;20497;-79
2022/01/18 06:15:00;;;;;;;0.10;0.10;;;;;;;3.77;100.00;102851.56;5028939;28;20041;-80
2022/01/18 06:17:28;;;;;;;0.10;0.10;;;;;;;3.72;100.00;102843.19;5021200;28;20044;-79
2022/01/18 06:20:01;;;;;;;0.10;0.10;;;;;;;3.75;100.00;102846.31;5030814;28;20496;-80
2022/01/18 06:22:34;;;;;;;0.10;0.10;;;;;;;3.69;100.00;102841.69;5029887;28;20465;-80
2022/01/18 06:25:08;;;;;;;0.10;0.10;;;;;;;3.61;100.00;102827.44;5031069;28;20402;-80
2022/01/18 06:27:42;;;;;;;0.10;0.10;;;;;;;3.60;100.00;102842.75;5021790;28;20053;-80
2022/01/18 06:30:18;;;;;;;0.10;0.10;;;;;;;3.60;100.00;102844.63;5021310;28;20054;-79
2022/01/18 06:32:52;;;;;;;0.10;0.10;;;;;;;3.66;100.00;102849.25;5024285;28;20411;-79
2022/01/18 06:35:25;;;;;;;0.10;0.10;;;;;;;3.57;100.00;102843.13;5027460;28;20054;-80
2022/01/18 06:37:59;;;;;;;0.10;0.10;;;;;;;3.64;100.00;102856.72;5021742;28;20042;-79
2022/01/18 06:40:32;;;;;;;0.10;0.10;;;;;;;3.59;100.00;102865.34;5026435;28;20524;-80
2022/01/18 06:43:05;;;;;;;0.10;0.10;;;;;;;3.56;100.00;102866.53;5023693;28;20068;-80
2022/01/18 06:45:40;;;;;;;0.10;0.10;;;;;;;3.53;100.00;102857.94;5023855;28;20042;-80
2022/01/18 06:48:08;;;;;;;0.10;0.10;;;;;;;3.49;100.00;102851.25;5025129;28;20037;-80
2022/01/18 06:50:37;;;;;;;0.10;0.10;;;;;;;3.47;100.00;102851.44;5032865;28;20049;-79
2022/01/18 06:53:10;;;;;;;0.10;0.10;;;;;;;3.57;100.00;102853.88;5034331;28;20033;-80
2022/01/18 06:55:43;;;;;;;0.10;0.10;;;;;;;3.46;100.00;102846.22;5026776;28;20084;-79
2022/01/18 06:58:16;;;;;;;0.10;0.10;;;;;;;3.55;100.00;102851.38;5024418;28;20045;-80
2022/01/18 07:00:51;;;;;;;0.10;0.10;;;;;;;3.47;100.00;102856.81;5032852;28;20266;-80
2022/01/18 07:03:24;;;;;;;0.10;0.10;;;;;;;3.43;100.00;102865.44;5030163;28;20417;-80
2022/01/18 07:05:57;;;;;;;0.10;0.10;;;;;;;3.46;100.00;102867.78;5030012;28;20053;-80
2022/01/18 07:08:31;;;;;;;0.10;0.10;;;;;;;3.46;100.00;102868.59;5052584;28;20058;-80
2022/01/18 07:11:07;;;;;;;0.10;0.10;;;;;;;3.53;100.00;102872.25;5029106;28;20433;-79
2022/01/18 07:13:35;;;;;;;0.10;0.10;;;;;;;3.47;100.00;102861.38;5027198;28;20049;-80
2022/01/18 07:16:05;;;;;;;0.10;0.10;;;;;;;3.48;100.00;102861.19;5034425;28;20057;-79
2022/01/18 07:18:38;;;;;;;0.20;0.20;;;;;;;3.43;100.00;102877.03;5034391;28;20389;-79
2022/01/18 07:21:12;;;;;;;0.10;0.10;;;;;;;3.45;100.00;102871.47;5022160;28;20078;-79
2022/01/18 07:23:45;;;;;;;0.15;0.15;;;;;;;3.44;100.00;102872.47;5018235;28;20057;-79
2022/01/18 07:26:18;;;;;;;0.10;0.10;;;;;;;3.43;100.00;102873.50;5027467;28;20049;-79
2022/01/18 07:28:51;;;;;;;0.10;0.10;;;;;;;3.40;100.00;102864.75;5029579;28;20049;-80
2022/01/18 07:31:26;;;;;;;0.20;0.20;;;;;;;3.40;100.00;102861.25;5027221;28;20045;-80
2022/01/18 07:33:59;;;;;;;0.20;0.20;;;;;;;3.35;100.00;102867.13;5027325;28;20056;-80
2022/01/18 07:36:33;;;;;;;0.13;0.13;;;;;;;3.37;100.00;102870.50;5019041;28;20057;-81
2022/01/18 07:39:06;;;;;;;0.10;0.10;;;;;;;3.34;100.00;102870.88;5024948;28;20046;-80
2022/01/18 07:41:39;;;;;;;0.10;0.10;;;;;;;3.27;100.00;102872.56;5021273;28;20058;-82
2022/01/18 07:44:12;;;;;;;0.10;0.10;;;;;;;3.27;100.00;102859.13;5034160;28;20425;-80
2022/01/18 07:46:47;;;;;;;0.10;0.10;;;;;;;3.33;100.00;102863.81;5041191;28;20068;-80
2022/01/18 07:49:20;;;;;;;0.10;0.10;;;;;;;3.25;100.00;102847.69;5033198;28;20052;-79
2022/01/18 07:51:53;;;;;;;0.10;0.10;;;;;;;3.31;100.00;102865.00;5022916;28;20773;-80
2022/01/18 07:54:26;;;;;;;0.10;0.10;;;;;;;3.26;100.00;102865.53;5023656;28;20053;-80
2022/01/18 07:57:00;;;;;;;0.10;0.10;;;;;;;3.34;100.00;102875.41;5024900;28;20057;-80
2022/01/18 07:59:33;;;;;;;0.10;0.10;;;;;;;3.36;100.00;102876.06;5026394;28;20042;-81
2022/01/18 08:02:07;;;;;;;0.10;0.10;;;;;;;3.43;100.00;102876.22;5031380;28;20069;-82
2022/01/18 08:04:40;;;;;;;0.20;0.20;;;;;;;3.39;100.00;102875.72;5020841;28;20042;-81
2022/01/18 08:07:14;;;;;;;0.17;0.17;;;;;;;3.45;100.00;102879.53;5029057;28;20127;-81
2022/01/18 08:09:47;;;;;;;0.20;0.20;;;;;;;3.49;100.00;102888.94;5024392;28;20045;-81
2022/01/18 08:12:20;;;;;;;0.10;0.10;;;;;;;3.47;100.00;102893.69;5022549;28;20049;-81
2022/01/18 08:14:59;;;;;;;0.10;0.10;;;;;;;3.55;100.00;102888.25;5019914;28;20061;-81
2022/01/18 08:17:34;;;;;;;0.10;0.10;;;;;;;3.55;100.00;102891.75;5013842;28;20045;-80
2022/01/18 08:20:10;;;;;;;0.15;0.15;;;;;;;3.56;100.00;102897.97;5013363;28;20070;-81
2022/01/18 08:22:45;;;;;;;0.10;0.10;;;;;;;3.55;100.00;102893.63;5017598;28;20048;-81
2022/01/18 08:25:18;;;;;;;0.10;0.10;;;;;;;3.64;100.00;102905.16;5018671;28;20045;-81
2022/01/18 08:27:47;;;;;;;0.10;0.10;;;;;;;3.56;100.00;102903.34;5011805;28;20042;-81
2022/01/18 08:30:17;;;;;;;0.10;0.10;;;;;;;3.65;100.00;102906.84;5012751;28;20049;-81
2022/01/18 08:32:54;;;;;;;0.20;0.20;;;;;;;3.70;100.00;102913.38;5020511;28;20046;-81
2022/01/18 08:35:27;;;;;;;0.10;0.10;;;;;;;3.79;100.00;102905.25;5017862;28;20121;-80
2022/01/18 08:38:01;;;;;;;0.10;0.10;;;;;;;3.90;100.00;102919.13;5020364;28;20045;-80
2022/01/18 08:40:29;;;;;;;0.15;0.15;;;;;;;3.94;100.00;102911.53;5020266;28;20062;-81
2022/01/18 08:43:02;;;;;;;0.10;0.10;;;;;;;3.95;100.00;102923.13;5008149;28;20052;-81
2022/01/18 08:45:37;;;;;;;0.20;0.20;;;;;;;4.00;100.00;102915.34;4992861;28;20057;-80
2022/01/18 08:48:06;;;;;;;0.10;0.10;;;;;;;4.09;100.00;102915.09;5008462;28;20046;-82
2022/01/18 08:50:40;;;;;;;0.15;0.15;;;;;;;4.12;100.00;102913.06;5009644;28;20068;-80
2022/01/18 08:53:13;;;;;;;0.10;0.10;;;;;;;4.13;100.00;102914.72;5013044;28;20042;-83
2022/01/18 08:55:42;;;;;;;0.10;0.10;;;;;;;4.19;100.00;102922.94;5006374;28;20061;-80
2022/01/18 08:58:16;;;;;;;0.13;0.13;;;;;;;4.22;100.00;102914.47;5010637;28;20050;-81
2022/01/18 09:00:49;;;;;;;0.10;0.10;;;;;;;4.30;100.00;102923.53;5014075;28;20049;-80
2022/01/18 09:03:24;;;;;;;0.10;0.10;;;;;;;4.34;100.00;102938.31;5014609;28;20121;-80
2022/01/18 09:05:57;;;;;;;0.10;0.10;;;;;;;4.29;100.00;102919.16;5011004;28;20050;-81
2022/01/18 09:08:26;;;;;;;0.10;0.10;;;;;;;4.43;100.00;102940.75;5011614;28;20482;-81
2022/01/18 09:10:59;;;;;;;0.10;0.10;;;;;;;4.54;100.00;102938.63;5012572;28;20056;-82
2022/01/18 09:13:34;;;;;;;0.10;0.10;;;;;;;4.57;100.00;102943.63;5010916;28;20053;-81
2022/01/18 09:16:09;;;;;;;0.10;0.10;;;;;;;4.56;100.00;102948.22;5009318;28;20049;-81
2022/01/18 09:18:44;;;;;;;0.10;0.10;;;;;;;4.64;100.00;102944.59;5011635;28;20053;-81
2022/01/18 09:21:12;;;;;;;0.05;0.05;;;;;;;4.63;100.00;102953.72;5011191;28;20692;-81
2022/01/18 09:23:46;;;;;;;0.20;0.20;;;;;;;4.67;100.00;102955.00;5004130;28;20053;-80
2022/01/18 09:26:19;;;;;;;0.10;0.10;;;;;;;4.79;100.00;102959.94;4997462;28;20053;-80
2022/01/18 09:28:52;;;;;;;0.10;0.10;;;;;;;4.80;100.00;102958.94;4998083;28;20053;-81
2022/01/18 09:31:25;;;;;;;0.10;0.10;;;;;;;4.84;100.00;102961.06;5001463;28;20400;-81
2022/01/18 09:34:00;;;;;;;0.10;0.10;;;;;;;4.90;100.00;102960.34;5001013;28;20053;-80
2022/01/18 09:36:33;;;;;;;0.10;0.10;;;;;;;4.94;100.00;102958.94;4999594;28;20061;-81
2022/01/18 09:39:07;;;;;;;0.10;0.10;;;;;;;4.99;100.00;102960.25;5003772;28;20082;-80
2022/01/18 09:41:43;;;;;;;0.20;0.20;;;;;;;5.00;100.00;102959.22;5001672;28;20063;-81
2022/01/18 09:44:11;;;;;;;0.10;0.10;;;;;;;5.14;100.00;102968.31;5007848;28;20073;-80
2022/01/18 09:46:46;;;;;;;0.10;0.10;;;;;;;5.13;100.00;102963.97;4984660;28;20702;-81
2022/01/18 09:49:22;;;;;;;0.10;0.10;;;;;;;5.24;100.00;102966.19;5007782;28;20061;-80
2022/01/18 09:51:51;;;;;;;0.10;0.10;;;;;;;5.27;100.00;102979.31;5000154;28;20064;-81
2022/01/18 09:54:24;;;;;;;0.10;0.10;;;;;;;5.29;100.00;102971.88;5000092;28;20053;-81
2022/01/18 09:56:58;;;;;;;0.10;0.10;;;;;;;5.40;100.00;102984.03;5000783;28;20045;-81
2022/01/18 09:59:26;;;;;;;0.10;0.10;;;;;;;5.35;100.00;102978.38;5005412;28;20053;-81
2022/01/18 10:02:01;;;;;;;0.17;0.17;;;;;;;5.47;100.00;102978.72;4997181;28;20045;-81
2022/01/18 10:04:40;;;;;;;0.10;0.10;;;;;;;5.45;100.00;102976.22;5005296;28;20505;-81
2022/01/18 10:07:13;;;;;;;0.10;0.10;;;;;;;5.55;100.00;102976.78;4999904;28;20084;-81
2022/01/18 10:09:42;;;;;;;0.20;0.20;;;;;;;5.47;100.00;102984.13;4997535;28;20053;-82
2022/01/18 10:12:22;;;;;;;0.10;0.10;;;;;;;5.50;100.00;102981.88;5003988;28;20053;-81
2022/01/18 10:14:59;;;;;;;0.20;0.20;;;;;;;5.58;100.00;102984.50;5003830;28;20048;-81
2022/01/18 10:17:35;;;;;;;0.10;0.10;;;;;;;5.60;100.00;102979.72;5004356;28;20052;-81
2022/01/18 10:20:13;;;;;;;0.20;0.20;;;;;;;5.62;100.00;102974.13;5001810;28;20066;-81
2022/01/18 10:22:49;;;;;;;0.10;0.10;;;;;;;5.58;100.00;102972.84;5006978;28;20117;-81
2022/01/18 10:25:24;;;;;;;0.17;0.17;;;;;;;5.56;100.00;102977.59;4999539;28;20319;-80
2022/01/18 10:27:54;;;;;;;0.10;0.10;;;;;;;5.60;100.00;102985.13;5002225;28;20050;-81
2022/01/18 10:30:39;;;;;;;0.10;0.10;;;;;;;5.58;100.00;102981.78;5002734;28;20050;-81
2022/01/18 10:33:17;;;;;;;0.10;0.10;;;;;;;5.58;100.00;102987.19;4997078;28;20057;-81
2022/01/18 10:36:09;;;;;;;0.20;0.20;;;;;;;5.65;100.00;102976.47;5000869;28;20061;-80
2022/01/18 10:38:45;;;;;;;0.10;0.10;;;;;;;5.58;100.00;102984.50;4998642;28;21553;-80
2022/01/18 10:41:23;;;;;;;0.10;0.10;;;;;;;5.58;100.00;102989.88;5002147;28;20092;-80
2022/01/18 10:44:06;;;;;;;0.13;0.13;;;;;;;5.48;100.00;102986.63;5004191;28;20041;-79
2022/01/18 10:46:41;;;;;;;0.10;0.10;;;;;;;5.51;100.00;102994.38;4993501;28;20053;-80
2022/01/18 10:49:27;;;;;;;0.10;0.10;;;;;;;5.35;100.00;102984.59;4997218;28;20074;-80
2022/01/18 10:52:06;;;;;;;0.10;0.10;;;;;;;5.40;100.00;102989.44;4996631;28;20053;-80
2022/01/18 10:54:43;;;;;;;0.10;0.10;;;;;;;5.29;100.00;102971.88;4992447;28;20049;-80
2022/01/18 10:57:21;;;;;;;0.20;0.20;;;;;;;5.36;100.00;102980.88;4998806;28;20568;-80
2022/01/18 10:59:57;;;;;;;0.10;0.10;;;;;;;5.40;100.00;102973.22;5006606;28;20041;-80
2022/01/18 11:02:33;;;;;;;0.10;0.10;;;;;;;5.41;100.00;102974.91;5004572;28;20041;-79
2022/01/18 11:05:12;;;;;;;0.10;0.10;;;;;;;5.30;100.00;102949.22;4997254;28;20045;-81
2022/01/18 11:07:43;;;;;;;0.10;0.10;;;;;;;5.35;100.00;102968.41;4994918;28;20049;-80
2022/01/18 11:10:19;;;;;;;0.15;0.15;;;;;;;5.40;100.00;102955.19;5004035;28;20739;-80
2022/01/18 11:12:57;;;;;;;0.10;0.10;;;;;;;5.44;100.00;102961.88;5000823;28;21743;-80
2022/01/18 11:15:32;;;;;;;0.10;0.10;;;;;;;5.35;100.00;102954.91;4997174;28;20064;-80
2022/01/18 11:18:14;;;;;;;0.20;0.20;;;;;;;5.41;100.00;102953.31;4993527;28;20837;-79
2022/01/18 11:20:49;;;;;;;0.00;0.00;;;;;;;5.43;100.00;102945.88;4996859;28;20057;-80
2022/01/18 11:23:22;;;;;;;0.17;0.17;;;;;;;5.47;100.00;102955.28;5002656;28;20053;-80
2022/01/18 11:25:51;;;;;;;0.10;0.10;;;;;;;5.46;100.00;102953.59;4997591;28;20049;-80
2022/01/18 11:28:29;;;;;;;0.10;0.10;;;;;;;5.45;100.00;102944.66;4992070;28;20072;-79
2022/01/18 11:31:02;;;;;;;0.10;0.10;;;;;;;5.43;100.00;102938.59;4996678;28;20060;-80
2022/01/18 11:33:35;;;;;;;0.10;0.10;;;;;;;5.47;100.00;102940.91;5010589;28;20053;-80
2022/01/18 11:36:11;;;;;;;0.10;0.10;;;;;;;5.56;100.00;102940.59;5001967;28;20666;-80
2022/01/18 11:38:50;;;;;;;0.10;0.10;;;;;;;5.59;100.00;102942.09;4994932;28;20060;-79
2022/01/18 11:41:25;;;;;;;0.15;0.15;;;;;;;5.52;100.00;102930.38;5006124;28;20049;-80
2022/01/18 11:44:10;;;;;;;0.10;0.10;;;;;;;5.56;100.00;102935.19;4999678;28;20077;-80
2022/01/18 11:46:48;;;;;;;0.10;0.10;;;;;;;5.55;100.00;102936.25;4995415;28;20438;-79
2022/01/18 11:49:19;;;;;;;0.10;0.10;;;;;;;5.49;100.00;102928.91;4996004;28;20371;-79
2022/01/18 11:51:52;;;;;;;0.20;0.20;;;;;;;5.40;100.00;102930.88;5001937;28;20553;-80
2022/01/18 11:54:33;;;;;;;0.13;0.13;;;;;;;5.44;100.00;102931.31;5007871;28;20060;-80
2022/01/18 11:57:35;;;;;;;0.10;0.10;;;;;;;5.49;100.00;102930.78;5000205;28;20052;-81
2022/01/18 12:00:24;;;;;;;0.10;0.10;;;;;;;5.47;100.00;102936.38;5005601;28;20489;-82
2022/01/18 12:03:16;;;;;;;0.10;0.10;;;;;;;5.45;100.00;102936.56;5007733;28;20049;-81
2022/01/18 12:05:44;;;;;;;0.20;0.20;;;;;;;5.42;100.00;102930.69;5004088;28;20045;-82
2022/01/18 12:08:39;;;;;;;0.20;0.20;;;;;;;5.47;100.00;102930.09;4998955;28;20060;-82
2022/01/18 12:11:36;;;;;;;0.10;0.10;;;;;;;5.37;100.00;102927.72;5003425;28;20068;-83
2022/01/18 12:14:09;;;;;;;0.10;0.10;;;;;;;5.31;100.00;102923.91;4998321;28;20056;-83
2022/01/18 12:16:50;;;;;;;0.15;0.15;;;;;;;5.37;100.00;102931.25;4999164;28;20049;-82
2022/01/18 12:19:42;;;;;;;0.10;0.10;;;;;;;5.33;100.00;102929.13;4998179;28;20060;-82
2022/01/18 12:22:15;;;;;;;0.10;0.10;;;;;;;5.38;100.00;102932.09;5004752;28;20057;-82
2022/01/18 12:24:49;;;;;;;0.10;0.10;;;;;;;5.36;100.00;102937.69;4999702;28;21078;-83
2022/01/18 12:27:32;;;;;;;0.10;0.10;;;;;;;5.35;100.00;102937.88;5007672;28;20068;-82
2022/01/18 12:30:39;;;;;;;0.10;0.10;;;;;;;5.48;100.00;102943.41;4994092;28;20045;-81
2022/01/18 12:33:16;;;;;;;0.10;0.10;;;;;;;5.53;100.00;102927.47;5002980;28;20042;-82
2022/01/18 12:35:45;;;;;;;0.10;0.10;;;;;;;5.53;100.00;102938.28;4992468;28;20053;-82
2022/01/18 12:38:22;;;;;;;0.10;0.10;;;;;;;5.55;100.00;102928.16;5006988;28;20056;-83
2022/01/18 12:40:55;;;;;;;0.03;0.03;;;;;;;5.57;100.00;102919.84;5001272;28;20053;-82
2022/01/18 12:46:16;;;;;;;0.10;0.10;;;;;;;5.54;100.00;102912.97;4991381;28;20072;-80
2022/01/18 12:48:58;;;;;;;0.10;0.10;;;;;;;5.50;100.00;102914.38;4994708;28;20058;-80
2022/01/18 12:51:31;;;;;;;0.10;0.10;;;;;;;5.50;100.00;102917.06;4999797;28;20053;-80